Time;durP1;ratioP1;P1;durP2;ratioP2;P2;SDS_P1;SDS_P2;PMS_P1;PMS_P2;Temp;Humidity;BMP_temperature;BMP_pressure;BME280_temperature;BME280_humidity;BME280_pressure;Samples;Min_cycle;Max_cycle;Signal;HPM_P1;HPM_P2
2021/06/04 00:01:26;;;;;;;5.55;3.92;;;;;;;16.95;51.47;100667.28;4468820;32;33781;-83
2021/06/04 00:03:55;;;;;;;3.78;3.37;;;;;;;16.87;51.71;100664.75;4468834;32;34309;-82
2021/06/04 00:06:23;;;;;;;4.55;3.80;;;;;;;16.86;51.82;100668.25;4467900;32;34464;-83
2021/06/04 00:08:51;;;;;;;6.93;3.78;;;;;;;16.83;51.78;100668.28;4469017;32;33346;-83
2021/06/04 00:11:27;;;;;;;4.37;3.72;;;;;;;16.66;52.29;100660.59;4468018;32;35158;-83
2021/06/04 00:14:05;;;;;;;5.15;3.25;;;;;;;16.63;52.28;100665.91;4468795;32;34874;-82
2021/06/04 00:16:37;;;;;;;8.77;3.95;;;;;;;16.67;52.26;100667.59;4467579;32;34532;-83
2021/06/04 00:19:07;;;;;;;;;;;;;;;16.53;52.88;100664.25;4467901;32;33371;-83
2021/06/04 00:21:38;;;;;;;4.85;3.33;;;;;;;16.58;52.80;100666.84;4440821;32;33736;-82
2021/06/04 00:24:07;;;;;;;5.78;4.00;;;;;;;16.72;52.49;100667.56;4467650;32;34568;-83
2021/06/04 00:26:36;;;;;;;4.55;3.20;;;;;;;16.68;52.48;100672.00;4467526;32;34405;-82
2021/06/04 00:29:05;;;;;;;6.05;3.37;;;;;;;16.58;52.47;100666.84;4454785;32;33099;-82
2021/06/04 00:31:33;;;;;;;5.12;3.60;;;;;;;16.70;52.22;100671.97;4467698;32;34648;-82
2021/06/04 00:34:02;;;;;;;4.78;3.50;;;;;;;16.68;52.19;100669.34;4467471;32;35261;-82
2021/06/04 00:36:30;;;;;;;6.93;3.85;;;;;;;16.62;52.54;100661.53;4467452;32;34762;-83
2021/06/04 00:38:59;;;;;;;5.78;3.62;;;;;;;16.51;52.58;100663.41;4442441;32;33204;-83
2021/06/04 00:41:42;;;;;;;5.85;4.05;;;;;;;16.35;53.06;100659.19;4467871;32;33911;-83
2021/06/04 00:44:10;;;;;;;4.75;3.65;;;;;;;16.52;52.63;100662.50;4452055;32;33511;-82
2021/06/04 00:46:40;;;;;;;6.32;3.83;;;;;;;16.52;52.70;100662.50;4467476;32;33940;-83
2021/06/04 00:49:09;;;;;;;5.68;3.97;;;;;;;16.65;52.42;100665.88;4454591;32;34872;-82
2021/06/04 00:51:46;;;;;;;5.82;3.75;;;;;;;16.62;52.47;100656.28;4468865;32;34609;-83
2021/06/04 00:54:15;;;;;;;8.45;4.68;;;;;;;16.82;52.35;100662.19;4467646;32;35347;-82
2021/06/04 00:56:43;;;;;;;4.53;3.58;;;;;;;16.67;52.94;100667.59;4467490;32;34017;-83
2021/06/04 00:59:12;;;;;;;5.35;3.45;;;;;;;16.67;52.79;100666.72;4467604;32;33646;-83
2021/06/04 01:01:42;;;;;;;6.00;3.67;;;;;;;16.60;52.95;100671.19;4466944;32;33822;-82
2021/06/04 01:04:16;;;;;;;6.60;3.55;;;;;;;16.61;52.64;100667.69;4467284;32;34689;-83
2021/06/04 01:07:07;;;;;;;5.22;3.55;;;;;;;16.52;52.87;100667.75;4468230;32;33888;-83
2021/06/04 01:09:47;;;;;;;5.40;3.20;;;;;;;16.51;53.05;100660.78;4442038;32;34125;-83
2021/06/04 01:12:35;;;;;;;5.25;3.40;;;;;;;16.56;52.81;100661.63;4468671;32;33573;-83
2021/06/04 01:15:16;;;;;;;6.53;3.60;;;;;;;16.54;52.84;100665.13;4467165;32;34385;-83
2021/06/04 01:18:02;;;;;;;5.22;3.55;;;;;;;16.49;52.69;100661.66;4454461;32;35195;-83
2021/06/04 01:20:43;;;;;;;5.95;3.30;;;;;;;16.52;52.62;100659.88;4468707;32;33150;-82
2021/06/04 01:23:26;;;;;;;4.60;3.67;;;;;;;16.53;52.60;100659.00;4467693;32;34223;-83
2021/06/04 01:26:01;;;;;;;5.35;3.25;;;;;;;16.51;52.52;100658.16;4467035;32;34784;-83
2021/06/04 01:28:34;;;;;;;5.70;3.80;;;;;;;16.41;52.62;100659.09;4466982;32;34386;-83
2021/06/04 01:31:17;;;;;;;4.55;3.50;;;;;;;16.39;52.80;100655.62;4441396;32;33494;-83
2021/06/04 01:33:52;;;;;;;6.72;3.67;;;;;;;16.42;52.76;100654.72;4456448;32;35154;-82
2021/06/04 01:36:24;;;;;;;4.85;3.05;;;;;;;16.56;52.27;100650.22;4470320;32;34784;-83
2021/06/04 01:38:58;;;;;;;4.68;3.47;;;;;;;16.57;52.44;100660.72;4456149;32;35307;-83
2021/06/04 01:41:28;;;;;;;6.00;3.37;;;;;;;16.53;52.49;100652.88;4455925;32;34411;-82
2021/06/04 01:44:01;;;;;;;3.85;3.28;;;;;;;16.60;52.50;100657.19;4469168;32;33876;-83
2021/06/04 01:46:34;;;;;;;3.80;3.30;;;;;;;16.42;52.95;100660.84;4455759;32;35309;-82
2021/06/04 01:49:10;;;;;;;4.37;3.50;;;;;;;16.34;52.91;100657.44;4456221;32;33919;-82
2021/06/04 01:52:07;;;;;;;4.22;2.90;;;;;;;16.40;52.60;100657.37;4456135;32;33628;-83
2021/06/04 01:54:48;;;;;;;8.20;3.47;;;;;;;16.42;52.46;100650.34;4462729;32;34601;-82
2021/06/04 01:57:21;;;;;;;4.00;3.10;;;;;;;16.29;52.81;100648.72;4455844;32;33615;-83
2021/06/04 01:59:52;;;;;;;4.37;3.40;;;;;;;16.33;52.55;100645.16;4468828;32;34658;-83
2021/06/04 02:02:27;;;;;;;5.28;3.10;;;;;;;16.30;52.39;100642.59;4455872;32;34032;-82
2021/06/04 02:04:55;;;;;;;5.47;3.30;;;;;;;16.38;52.27;100642.53;4456051;32;33883;-82
2021/06/04 02:07:28;;;;;;;3.62;3.20;;;;;;;16.42;52.73;100639.84;4468982;32;34289;-82
2021/06/04 02:09:57;;;;;;;4.20;3.33;;;;;;;16.26;52.98;100654.00;4468879;32;34755;-83
2021/06/04 02:12:25;;;;;;;4.05;3.17;;;;;;;16.25;53.10;100657.53;4469728;32;33905;-82
2021/06/04 02:15:03;;;;;;;6.03;3.40;;;;;;;16.47;52.65;100652.94;4455936;32;33835;-83
2021/06/04 02:17:47;;;;;;;4.95;3.53;;;;;;;16.41;52.59;100648.59;4468741;32;34304;-82
2021/06/04 02:20:27;;;;;;;4.37;3.55;;;;;;;16.36;52.50;100654.78;4455696;32;33475;-83
2021/06/04 02:23:19;;;;;;;3.72;2.80;;;;;;;16.42;52.45;100655.59;4455655;32;33072;-83
2021/06/04 02:26:06;;;;;;;5.45;3.58;;;;;;;16.34;52.54;100652.19;4468572;32;33857;-83
2021/06/04 02:28:56;;;;;;;5.45;3.25;;;;;;;16.32;52.70;100653.06;4469458;32;35333;-83
2021/06/04 02:31:29;;;;;;;6.22;3.50;;;;;;;16.43;52.68;100651.19;4469723;32;34263;-82
2021/06/04 02:34:06;;;;;;;4.00;3.15;;;;;;;16.48;52.64;100647.66;4469656;32;33412;-83
2021/06/04 02:36:40;;;;;;;4.95;3.40;;;;;;;16.57;52.75;100649.34;4455710;32;33290;-83
2021/06/04 02:39:15;;;;;;;4.78;3.10;;;;;;;16.45;52.77;100650.31;4468562;32;35214;-82
2021/06/04 02:41:49;;;;;;;4.07;3.55;;;;;;;16.43;53.21;100657.31;4455626;32;34284;-82
2021/06/04 02:44:21;;;;;;;5.35;3.33;;;;;;;16.27;53.54;100658.38;4454765;32;33639;-83
2021/06/04 02:46:52;;;;;;;5.85;3.17;;;;;;;16.35;53.33;100656.56;4468310;32;34206;-82
2021/06/04 02:49:21;;;;;;;3.50;2.95;;;;;;;16.30;53.27;100653.09;4469591;32;34417;-82
2021/06/04 02:51:52;;;;;;;8.57;3.62;;;;;;;16.36;53.38;100650.41;4468395;32;34228;-82
2021/06/04 02:54:24;;;;;;;4.75;3.30;;;;;;;16.26;53.19;100648.75;4468275;32;33872;-83
2021/06/04 02:56:55;;;;;;;3.50;2.78;;;;;;;16.24;53.31;100656.66;4455273;32;33736;-83
2021/06/04 02:59:28;;;;;;;5.65;3.22;;;;;;;16.31;53.22;100657.44;4469577;32;34879;-83
2021/06/04 03:02:07;;;;;;;6.37;3.17;;;;;;;16.46;52.90;100659.06;4455430;32;33586;-83
2021/06/04 03:04:38;;;;;;;4.03;3.25;;;;;;;16.50;52.85;100671.25;4468347;32;33268;-82
2021/06/04 03:07:11;;;;;;;6.85;3.60;;;;;;;16.38;53.33;100663.53;4442753;32;34252;-83
2021/06/04 03:09:43;;;;;;;5.70;3.25;;;;;;;16.32;53.63;100668.81;4468009;32;35702;-83
2021/06/04 03:12:15;;;;;;;5.30;3.05;;;;;;;16.40;53.50;100673.12;4468459;32;33948;-83
2021/06/04 03:14:44;;;;;;;3.30;3.00;;;;;;;16.39;53.57;100670.50;4468080;32;34086;-82
2021/06/04 03:17:12;;;;;;;6.70;3.67;;;;;;;16.43;53.37;100673.09;4455179;32;34164;-83
2021/06/04 03:19:42;;;;;;;5.05;3.33;;;;;;;16.43;53.44;100683.59;4468162;32;34978;-83
2021/06/04 03:22:22;;;;;;;5.57;3.72;;;;;;;16.47;53.44;100674.81;4455082;32;33683;-83
2021/06/04 03:24:51;;;;;;;6.35;3.65;;;;;;;16.56;53.51;100685.25;4455473;32;34825;-83
2021/06/04 03:27:21;;;;;;;6.15;3.67;;;;;;;16.49;53.46;100683.53;4455585;32;33465;-83
2021/06/04 03:29:51;;;;;;;7.03;3.58;;;;;;;16.44;53.70;100685.34;4468211;32;34869;-82
2021/06/04 03:32:20;;;;;;;5.07;3.53;;;;;;;16.56;53.71;100680.00;4455586;32;33923;-83
2021/06/04 03:34:59;;;;;;;6.43;3.83;;;;;;;16.62;53.45;100679.03;4468307;32;33847;-83
2021/06/04 03:37:27;;;;;;;4.75;3.62;;;;;;;16.53;53.80;100685.28;4468105;32;33912;-83
2021/06/04 03:39:55;;;;;;;5.28;3.45;;;;;;;16.61;53.91;100680.81;4468188;32;35831;-83
2021/06/04 03:42:29;;;;;;;7.62;3.75;;;;;;;16.57;53.99;100692.22;4467756;32;34146;-83
2021/06/04 03:44:57;;;;;;;6.18;4.10;;;;;;;16.60;54.08;100688.69;4455122;32;33357;-83
2021/06/04 03:47:25;;;;;;;4.45;3.50;;;;;;;16.60;54.40;100694.81;4467689;32;33897;-83
2021/06/04 03:49:54;;;;;;;6.82;4.15;;;;;;;16.66;54.49;100694.75;4455051;32;34173;-82
2021/06/04 03:52:24;;;;;;;6.85;4.45;;;;;;;16.64;54.55;100701.78;4467795;32;35170;-83
2021/06/04 03:54:54;;;;;;;8.55;3.62;;;;;;;16.75;54.45;100706.94;4467769;32;33165;-82
2021/06/04 03:57:32;;;;;;;6.37;4.15;;;;;;;16.85;54.23;100709.41;4468342;32;33815;-83
2021/06/04 04:00:00;;;;;;;4.90;3.70;;;;;;;16.92;53.99;100708.47;4468839;32;36252;-82
2021/06/04 04:02:29;;;;;;;5.32;3.67;;;;;;;17.03;54.50;100707.47;4454542;32;33976;-83
2021/06/04 04:04:58;;;;;;;4.50;3.90;;;;;;;17.01;54.67;100706.62;4455170;32;33766;-83
2021/06/04 04:07:29;;;;;;;5.40;3.55;;;;;;;17.07;54.87;100717.09;4467727;32;34058;-83
2021/06/04 04:09:57;;;;;;;7.20;4.00;;;;;;;17.10;54.93;100711.75;4455015;32;34409;-83
2021/06/04 04:12:27;;;;;;;6.12;3.83;;;;;;;17.21;54.64;100709.91;4468901;32;34103;-83
2021/06/04 04:14:55;;;;;;;6.90;4.28;;;;;;;17.32;54.62;100718.50;4454919;32;33801;-82
2021/06/04 04:17:23;;;;;;;7.30;4.47;;;;;;;17.28;54.87;100717.66;4467865;32;33777;-83
2021/06/04 04:19:51;;;;;;;9.32;4.00;;;;;;;17.34;54.75;100719.34;4455033;32;35069;-83
2021/06/04 04:22:18;;;;;;;5.60;4.15;;;;;;;17.40;53.95;100714.03;4469006;32;34262;-83
2021/06/04 04:24:46;;;;;;;6.80;3.90;;;;;;;17.16;53.61;100714.34;4467794;32;33381;-83
2021/06/04 04:27:14;;;;;;;6.12;3.72;;;;;;;17.45;53.04;100706.91;4467587;32;34043;-82
2021/06/04 04:29:41;;;;;;;5.40;4.07;;;;;;;17.54;52.63;100706.84;4468730;32;34415;-82
2021/06/04 04:32:13;;;;;;;5.82;4.22;;;;;;;17.53;52.13;100708.59;4467401;32;34063;-83
2021/06/04 04:34:42;;;;;;;4.95;3.83;;;;;;;17.53;52.30;100708.59;4455116;32;33993;-83
2021/06/04 04:37:11;;;;;;;6.32;3.92;;;;;;;17.71;51.81;100706.59;4467593;32;34107;-83
2021/06/04 04:39:42;;;;;;;8.70;4.10;;;;;;;17.81;51.46;100706.41;4467466;32;35363;-83
2021/06/04 04:42:12;;;;;;;6.07;3.57;;;;;;;17.90;50.95;100710.69;4454840;32;35303;-83
2021/06/04 04:44:41;;;;;;;7.57;4.30;;;;;;;17.86;51.55;100708.97;4467393;32;33297;-83
2021/06/04 04:47:12;;;;;;;5.95;4.18;;;;;;;18.10;50.64;100720.00;4468442;32;34308;-83
2021/06/04 04:49:40;;;;;;;6.28;4.32;;;;;;;17.95;51.12;100714.97;4454208;32;34062;-83
2021/06/04 04:52:13;;;;;;;4.87;4.37;;;;;;;17.91;51.81;100717.69;4468218;32;35252;-83
2021/06/04 04:54:43;;;;;;;5.22;3.80;;;;;;;17.97;51.43;100715.81;4467646;32;34092;-82
2021/06/04 04:57:11;;;;;;;8.60;4.40;;;;;;;18.16;50.54;100727.78;4467826;32;35067;-83
2021/06/04 04:59:40;;;;;;;9.45;4.60;;;;;;;18.21;50.44;100722.44;4474805;32;34523;-83
2021/06/04 05:02:09;;;;;;;5.55;4.15;;;;;;;18.22;50.11;100724.19;4476372;32;34113;-83
2021/06/04 05:04:37;;;;;;;6.25;4.45;;;;;;;18.27;50.46;100717.09;4474779;32;34184;-83
2021/06/04 05:07:05;;;;;;;6.60;4.15;;;;;;;18.22;50.73;100725.06;4467622;32;34128;-83
2021/06/04 05:09:33;;;;;;;6.43;3.92;;;;;;;18.27;50.81;100717.97;4454322;32;35256;-82
2021/06/04 05:12:02;;;;;;;9.63;3.83;;;;;;;18.38;50.92;100724.78;4441771;32;33544;-83
2021/06/04 05:14:30;;;;;;;6.40;4.50;;;;;;;18.47;51.16;100730.78;4454599;32;33237;-83
2021/06/04 05:16:57;;;;;;;6.72;4.85;;;;;;;18.56;51.35;100727.16;4467677;32;33822;-83
2021/06/04 05:19:25;;;;;;;4.80;4.30;;;;;;;18.69;51.57;100728.66;4467934;32;34796;-83
2021/06/04 05:21:53;;;;;;;7.85;4.25;;;;;;;18.83;51.23;100724.84;4454837;32;34420;-83
2021/06/04 05:24:21;;;;;;;8.15;4.97;;;;;;;18.84;51.49;100734.53;4467754;32;33324;-82
2021/06/04 05:26:49;;;;;;;5.53;4.10;;;;;;;18.88;51.16;100727.41;4467143;32;34571;-82
2021/06/04 05:29:17;;;;;;;7.65;4.43;;;;;;;19.01;50.40;100731.56;4466646;32;33923;-82
2021/06/04 05:31:45;;;;;;;9.88;4.97;;;;;;;19.11;50.25;100730.44;4454868;32;33939;-82
2021/06/04 05:34:13;;;;;;;7.57;4.57;;;;;;;19.23;49.84;100730.19;4468739;32;34163;-82
2021/06/04 05:36:41;;;;;;;10.32;4.87;;;;;;;19.23;50.68;100732.00;4467612;32;34504;-82
2021/06/04 05:39:13;;;;;;;7.22;4.70;;;;;;;19.27;49.97;100723.09;4467473;32;35787;-82
2021/06/04 05:44:52;;;;;;;8.82;4.40;;;;;;;19.63;48.50;100718.84;4467605;32;33293;-82
2021/06/04 05:47:20;;;;;;;9.43;4.53;;;;;;;19.53;48.61;100721.69;4468414;32;35171;-82
2021/06/04 05:49:47;;;;;;;14.75;8.43;;;;;;;19.65;48.76;100728.44;4467645;32;34789;-83
2021/06/04 05:52:15;;;;;;;8.07;5.40;;;;;;;19.71;48.86;100732.69;4467727;32;35281;-82
2021/06/04 05:54:46;;;;;;;9.70;5.50;;;;;;;19.86;48.87;100727.97;4466562;32;33159;-82
2021/06/04 05:57:15;;;;;;;6.28;4.50;;;;;;;19.95;48.47;100726.88;4453618;32;34226;-82
2021/06/04 05:59:43;;;;;;;6.60;4.93;;;;;;;20.03;47.46;100727.56;4466752;32;34794;-82
2021/06/04 06:02:11;;;;;;;8.90;4.93;;;;;;;20.21;47.14;100725.34;4465928;32;34166;-82
2021/06/04 06:04:40;;;;;;;10.18;4.53;;;;;;;20.37;46.72;100731.16;4452339;32;33757;-82
2021/06/04 06:07:08;;;;;;;9.00;4.35;;;;;;;20.52;46.16;100727.22;4464970;32;34019;-83
2021/06/04 06:09:36;;;;;;;8.93;4.10;;;;;;;20.57;46.10;100726.19;4464651;32;34648;-83
2021/06/04 06:12:05;;;;;;;8.10;4.07;;;;;;;20.79;45.76;100735.31;4452025;32;35180;-83
2021/06/04 06:14:32;;;;;;;10.88;4.40;;;;;;;20.72;47.06;100727.56;4465300;32;34680;-83
2021/06/04 06:17:00;;;;;;;9.55;4.15;;;;;;;21.08;45.69;100725.72;4465794;32;35132;-82
2021/06/04 06:19:28;;;;;;;7.72;4.25;;;;;;;21.33;46.06;100727.63;4467055;32;35097;-82
2021/06/04 06:21:55;;;;;;;7.60;4.10;;;;;;;21.36;46.38;100737.25;4466720;32;34811;-82
2021/06/04 06:24:23;;;;;;;7.25;4.10;;;;;;;21.29;46.98;100735.69;4468108;32;33372;-83
2021/06/04 06:26:51;;;;;;;10.32;4.57;;;;;;;21.38;46.14;100732.75;4467507;32;35212;-82
2021/06/04 06:29:18;;;;;;;7.03;3.33;;;;;;;21.73;44.26;100731.72;4468378;32;34652;-83
2021/06/04 06:31:48;;;;;;;5.68;3.70;;;;;;;21.80;42.48;100734.09;4468007;32;35125;-83
2021/06/04 06:34:17;;;;;;;5.90;3.35;;;;;;;21.99;39.88;100737.94;4455679;32;34469;-83
2021/06/04 06:36:45;;;;;;;7.07;3.28;;;;;;;22.24;38.96;100733.59;4468240;32;35104;-83
2021/06/04 06:39:21;;;;;;;6.97;3.80;;;;;;;22.40;39.75;100730.41;4455463;32;34388;-83
2021/06/04 06:41:49;;;;;;;4.70;3.28;;;;;;;22.42;38.35;100739.16;4468237;32;35115;-83
2021/06/04 06:44:17;;;;;;;7.07;3.72;;;;;;;22.61;37.68;100732.34;4468191;32;33843;-82
2021/06/04 06:46:46;;;;;;;10.52;3.92;;;;;;;22.89;38.21;100736.62;4469448;32;33794;-83
2021/06/04 06:49:14;;;;;;;11.70;5.25;;;;;;;22.94;40.00;100739.13;4467635;32;35195;-83
2021/06/04 06:51:42;;;;;;;7.90;4.95;;;;;;;23.18;39.76;100738.22;4455388;32;34677;-83
2021/06/04 06:54:15;;;;;;;10.20;5.00;;;;;;;23.49;38.25;100736.19;4460103;32;33803;-82
2021/06/04 06:56:59;;;;;;;7.68;5.00;;;;;;;23.77;38.05;100730.66;4459823;32;34070;-83
2021/06/04 06:59:31;;;;;;;6.28;4.62;;;;;;;23.84;37.56;100728.66;4463664;32;35204;-82
2021/06/04 07:02:02;;;;;;;10.40;5.78;;;;;;;23.85;38.83;100733.91;4452513;32;34079;-82
2021/06/04 07:04:30;;;;;;;10.32;5.97;;;;;;;24.06;38.71;100729.50;4467289;32;34189;-82
2021/06/04 07:06:58;;;;;;;8.40;5.05;;;;;;;24.35;38.55;100729.19;4468151;32;33907;-82
2021/06/04 07:09:27;;;;;;;7.03;4.80;;;;;;;24.78;37.70;100730.91;4455026;32;34451;-82
2021/06/04 07:11:55;;;;;;;7.50;4.53;;;;;;;24.94;37.98;100728.47;4468833;32;33996;-82
2021/06/04 07:14:28;;;;;;;8.95;4.37;;;;;;;24.95;36.80;100727.53;4468252;32;33341;-82
2021/06/04 07:16:56;;;;;;;8.38;4.10;;;;;;;25.41;35.19;100728.00;4468375;32;34637;-83
2021/06/04 07:19:24;;;;;;;6.47;4.40;;;;;;;25.30;37.47;100734.78;4454869;32;34766;-82
2021/06/04 07:21:53;;;;;;;12.27;4.37;;;;;;;25.41;36.66;100727.16;4456880;32;34014;-82
2021/06/04 07:24:22;;;;;;;7.55;4.60;;;;;;;25.59;36.76;100731.66;4441088;32;34245;-82
2021/06/04 07:26:53;;;;;;;11.18;4.15;;;;;;;25.76;37.65;100728.19;4454641;32;34152;-82
2021/06/04 07:29:24;;;;;;;9.48;4.43;;;;;;;25.91;35.41;100730.97;4446284;32;34772;-82
2021/06/04 07:31:53;;;;;;;8.82;3.85;;;;;;;26.19;35.00;100735.87;4452174;32;34780;-82
2021/06/04 07:34:23;;;;;;;6.00;3.15;;;;;;;26.00;35.55;100730.56;4452261;32;34047;-82
2021/06/04 07:36:54;;;;;;;14.27;3.55;;;;;;;26.05;34.83;100727.66;4452632;32;33850;-82
2021/06/04 07:39:29;;;;;;;9.95;3.10;;;;;;;26.20;33.13;100737.56;4452359;32;34379;-82
2021/06/04 07:41:59;;;;;;;7.15;3.17;;;;;;;26.46;33.06;100728.28;4453746;32;34678;-82
2021/06/04 07:44:27;;;;;;;7.87;3.60;;;;;;;26.59;32.49;100726.72;4452355;32;34785;-82
2021/06/04 07:46:56;;;;;;;8.32;3.37;;;;;;;26.75;29.60;100727.66;4451943;32;35141;-82
2021/06/04 07:49:25;;;;;;;6.32;3.17;;;;;;;26.80;29.64;100734.50;4451514;32;35826;-82
2021/06/04 07:51:56;;;;;;;6.00;2.65;;;;;;;26.55;28.61;100733.16;4452292;32;33938;-82
2021/06/04 07:54:26;;;;;;;5.03;2.67;;;;;;;26.81;28.94;100733.53;4445785;32;33247;-82
2021/06/04 07:56:54;;;;;;;7.50;2.85;;;;;;;27.03;29.15;100733.28;4467360;32;35051;-82
2021/06/04 07:59:22;;;;;;;4.70;2.95;;;;;;;27.14;29.10;100724.72;4454248;32;35310;-82
2021/06/04 08:01:50;;;;;;;6.05;2.97;;;;;;;26.96;29.68;100731.87;4466212;32;33955;-82
2021/06/04 08:04:36;;;;;;;5.72;2.55;;;;;;;26.94;29.50;100732.91;4456201;32;32805;-82
2021/06/04 08:07:03;;;;;;;5.10;2.53;;;;;;;27.41;28.45;100728.56;4454099;32;33731;-82
2021/06/04 08:09:31;;;;;;;6.60;2.60;;;;;;;27.44;27.67;100737.28;4453717;32;36557;-82
2021/06/04 08:12:01;;;;;;;4.10;3.12;;;;;;;27.50;28.28;100733.44;4468089;32;34075;-82
2021/06/04 08:14:30;;;;;;;7.45;3.00;;;;;;;27.53;27.69;100727.91;4467310;32;35159;-82
2021/06/04 08:16:58;;;;;;;7.78;2.92;;;;;;;27.47;27.01;100725.59;4467508;32;34635;-82
2021/06/04 08:19:29;;;;;;;9.10;2.78;;;;;;;27.26;28.91;100740.06;4466817;32;34751;-81
2021/06/04 08:21:57;;;;;;;7.82;2.85;;;;;;;27.31;28.20;100733.56;4466757;32;35027;-82
2021/06/04 08:24:30;;;;;;;6.35;2.65;;;;;;;27.35;27.91;100734.22;4468399;32;33764;-82
2021/06/04 08:27:01;;;;;;;4.05;3.12;;;;;;;27.38;27.95;100734.97;4454138;32;34694;-82
2021/06/04 08:29:31;;;;;;;7.10;3.20;;;;;;;27.37;29.53;100727.00;4454068;32;34182;-82
2021/06/04 08:32:00;;;;;;;3.90;2.80;;;;;;;27.57;26.56;100726.81;4454043;32;34758;-82
2021/06/04 08:34:28;;;;;;;4.37;3.03;;;;;;;27.47;28.89;100731.78;4454078;32;34028;-82
2021/06/04 08:36:56;;;;;;;6.97;3.35;;;;;;;27.78;27.50;100736.28;4467579;32;34408;-82
2021/06/04 08:39:32;;;;;;;6.37;3.37;;;;;;;27.92;27.24;100730.16;4467089;32;35806;-82
2021/06/04 08:42:12;;;;;;;6.85;3.37;;;;;;;27.86;28.23;100733.19;4466315;32;34765;-82
2021/06/04 08:45:01;;;;;;;5.40;3.28;;;;;;;27.88;26.61;100729.50;4467066;32;33429;-82
2021/06/04 08:47:31;;;;;;;5.43;3.50;;;;;;;27.89;26.46;100727.66;4454263;32;34613;-82
2021/06/04 08:50:11;;;;;;;9.27;3.62;;;;;;;27.71;27.83;100724.22;4467002;32;34844;-83
2021/06/04 08:52:58;;;;;;;5.95;3.35;;;;;;;27.81;28.87;100719.22;4469102;32;33930;-82
2021/06/04 08:55:33;;;;;;;5.60;3.03;;;;;;;27.67;28.57;100724.47;4451614;32;32798;-82
2021/06/04 08:58:08;;;;;;;6.12;3.25;;;;;;;27.99;28.71;100721.75;4451743;32;33824;-82
2021/06/04 09:00:40;;;;;;;7.47;3.20;;;;;;;28.05;28.04;100712.50;4439087;32;33951;-82
2021/06/04 09:03:22;;;;;;;8.05;3.28;;;;;;;28.04;27.05;100713.44;4451853;32;34848;-82
2021/06/04 09:05:58;;;;;;;8.50;3.40;;;;;;;28.16;27.49;100715.41;4451332;32;33413;-82
2021/06/04 09:08:30;;;;;;;8.32;3.60;;;;;;;28.29;27.33;100708.37;4451791;32;33855;-82
2021/06/04 09:11:01;;;;;;;10.55;3.90;;;;;;;28.55;26.68;100714.87;4451895;32;34429;-83
2021/06/04 09:13:32;;;;;;;6.30;3.53;;;;;;;28.16;28.77;100712.75;4451974;32;35253;-82
2021/06/04 09:16:10;;;;;;;6.20;3.65;;;;;;;27.96;30.19;100700.47;4451835;32;33618;-82
2021/06/04 09:18:51;;;;;;;8.82;3.72;;;;;;;28.19;27.98;100707.22;4451957;32;35068;-83
2021/06/04 09:21:27;;;;;;;5.05;3.37;;;;;;;28.00;27.76;100706.56;4452370;32;34693;-83
2021/06/04 09:23:58;;;;;;;5.55;3.45;;;;;;;28.10;27.55;100702.38;4439339;32;33948;-82
2021/06/04 09:26:28;;;;;;;7.50;3.05;;;;;;;28.05;28.32;100701.81;4451772;32;33505;-82
2021/06/04 09:29:01;;;;;;;4.47;3.45;;;;;;;27.99;29.56;100704.78;4439254;32;34000;-82
2021/06/04 09:31:38;;;;;;;7.43;3.10;;;;;;;28.19;28.49;100701.87;4452921;32;34417;-82
2021/06/04 09:34:14;;;;;;;6.03;3.47;;;;;;;28.49;27.34;100693.81;4452808;32;34052;-83
2021/06/04 09:36:49;;;;;;;7.22;2.90;;;;;;;28.29;29.55;100696.84;4439040;32;34506;-82
2021/06/04 09:39:41;;;;;;;5.47;3.05;;;;;;;28.25;28.97;100695.28;4451487;32;35228;-83
2021/06/04 09:42:21;;;;;;;6.72;4.05;;;;;;;28.26;27.46;100697.87;4452843;32;34204;-82
2021/06/04 09:45:04;;;;;;;6.37;3.40;;;;;;;28.31;28.19;100694.94;4439404;32;34264;-84
2021/06/04 09:47:41;;;;;;;7.40;3.40;;;;;;;28.02;28.51;100689.47;4439078;32;32919;-83
2021/06/04 09:50:30;;;;;;;5.15;3.08;;;;;;;28.12;26.76;100681.78;4451308;32;33900;-82
2021/06/04 09:53:22;;;;;;;5.45;2.92;;;;;;;27.92;26.86;100684.69;4456689;32;34639;-82
2021/06/04 09:55:52;;;;;;;4.10;3.00;;;;;;;28.39;26.93;100682.81;4453470;32;34352;-82
2021/06/04 09:58:25;;;;;;;3.67;2.90;;;;;;;28.52;25.99;100689.16;4440653;32;34695;-82
2021/06/04 10:01:07;;;;;;;5.93;2.90;;;;;;;28.64;25.31;100677.75;4466629;32;35128;-83
2021/06/04 10:03:36;;;;;;;4.57;3.15;;;;;;;28.62;26.25;100682.31;4454444;32;34357;-82
2021/06/04 10:06:05;;;;;;;8.30;2.90;;;;;;;28.47;27.38;100685.91;4440635;32;34011;-83
2021/06/04 10:08:43;;;;;;;6.03;2.92;;;;;;;28.72;27.27;100680.81;4453493;32;33475;-82
2021/06/04 10:11:17;;;;;;;4.30;3.03;;;;;;;28.85;27.44;100686.28;4440571;32;34679;-82
2021/06/04 10:13:55;;;;;;;5.78;3.12;;;;;;;28.49;27.12;100677.78;4469372;32;34368;-82
2021/06/04 10:16:28;;;;;;;7.10;3.50;;;;;;;28.40;27.58;100681.00;4468907;32;33982;-82
2021/06/04 10:18:56;;;;;;;12.57;3.42;;;;;;;28.10;27.50;100676.50;4470331;32;33945;-82
2021/06/04 10:21:31;;;;;;;7.90;2.97;;;;;;;28.65;26.86;100684.81;4468356;32;33350;-82
2021/06/04 10:24:01;;;;;;;4.97;2.72;;;;;;;28.61;26.18;100682.41;4455465;32;33863;-84
2021/06/04 10:26:36;;;;;;;3.78;3.08;;;;;;;28.76;26.14;100682.34;4450484;32;33984;-82
2021/06/04 10:29:04;;;;;;;4.20;2.45;;;;;;;29.00;25.31;100680.00;4451910;32;33635;-82
2021/06/04 10:31:49;;;;;;;4.62;2.47;;;;;;;29.00;24.70;100665.72;4453603;32;34673;-82
2021/06/04 10:34:29;;;;;;;4.72;2.50;;;;;;;28.93;24.87;100667.91;4452741;32;34494;-82
2021/06/04 10:36:58;;;;;;;2.70;2.47;;;;;;;28.89;25.49;100665.50;4457569;32;35394;-82
2021/06/04 10:39:32;;;;;;;4.10;2.67;;;;;;;29.24;24.05;100667.75;4454533;32;33762;-82
2021/06/04 10:42:25;;;;;;;7.65;2.80;;;;;;;29.27;25.19;100670.22;4462704;32;34498;-82
2021/06/04 10:45:12;;;;;;;2.87;2.53;;;;;;;29.24;24.68;100662.38;4462976;32;35459;-82
2021/06/04 10:47:45;;;;;;;6.62;2.83;;;;;;;29.12;24.88;100656.94;4468201;32;34639;-82
2021/06/04 10:50:13;;;;;;;2.80;2.55;;;;;;;28.95;25.01;100660.66;4452671;32;32971;-83
2021/06/04 10:52:59;;;;;;;4.55;2.60;;;;;;;29.19;24.54;100655.62;4464181;32;34071;-83
2021/06/04 10:55:37;;;;;;;4.75;2.62;;;;;;;29.13;24.09;100647.91;4453803;32;35831;-82
2021/06/04 10:58:24;;;;;;;4.50;2.87;;;;;;;29.21;23.24;100641.16;4461371;32;33999;-82
2021/06/04 11:00:57;;;;;;;8.50;2.90;;;;;;;29.19;25.36;100643.06;4446103;32;33214;-86
2021/06/04 11:03:32;;;;;;;4.10;2.92;;;;;;;29.35;25.63;100642.94;4453182;32;34494;-82
2021/06/04 11:06:33;;;;;;;4.90;2.97;;;;;;;29.00;25.82;100638.94;4451038;32;34518;-82
2021/06/04 11:09:36;;;;;;;7.63;2.63;;;;;;;28.98;25.22;100638.19;4464788;32;34099;-83
2021/06/04 11:12:16;;;;;;;4.78;2.85;;;;;;;29.04;25.28;100633.31;4447086;32;33371;-82
2021/06/04 11:15:07;;;;;;;4.60;2.58;;;;;;;29.04;25.09;100629.75;4444686;32;35113;-82
2021/06/04 11:17:38;;;;;;;4.82;2.35;;;;;;;29.26;25.19;100632.84;4460184;32;34244;-82
2021/06/04 11:20:40;;;;;;;5.53;2.90;;;;;;;29.27;24.31;100626.50;4468976;32;34152;-82
2021/06/04 11:23:17;;;;;;;4.25;2.40;;;;;;;29.29;24.83;100625.44;4450177;32;33382;-82
2021/06/04 11:26:04;;;;;;;5.10;2.58;;;;;;;29.43;25.48;100622.72;4454718;32;33846;-82
2021/06/04 11:28:46;;;;;;;5.62;2.80;;;;;;;29.35;24.95;100618.84;4468951;32;34270;-82
2021/06/04 11:31:53;;;;;;;4.00;2.65;;;;;;;29.38;24.45;100627.53;4454903;32;34666;-83
2021/06/04 11:34:28;;;;;;;4.53;2.60;;;;;;;29.20;24.58;100622.50;4439035;32;33546;-83
2021/06/04 11:36:58;;;;;;;4.75;2.83;;;;;;;29.23;23.61;100619.63;4467605;32;33464;-83
2021/06/04 11:39:38;;;;;;;5.90;3.03;;;;;;;29.41;23.40;100610.37;4454517;32;35346;-83
2021/06/04 11:42:47;;;;;;;4.40;2.53;;;;;;;29.27;25.63;100610.41;4467443;32;34064;-83
2021/06/04 11:45:17;;;;;;;4.20;2.42;;;;;;;29.18;24.43;100605.63;4411951;32;32932;-83
2021/06/04 11:47:45;;;;;;;3.70;2.60;;;;;;;29.27;23.50;100599.69;4467344;32;34798;-83
2021/06/04 11:50:22;;;;;;;2.75;2.30;;;;;;;29.52;23.34;100602.53;4454589;32;34478;-83
2021/06/04 11:52:53;;;;;;;6.00;2.83;;;;;;;29.76;22.50;100600.94;4466369;32;34642;-83
2021/06/04 11:55:23;;;;;;;3.60;2.40;;;;;;;29.46;22.18;100600.22;4454220;32;34063;-83